sensor_id;sensor_type;location;lat;lon;timestamp;P1;durP1;ratioP1;P2;durP2;ratioP2
13868;SDS011;7004;48.206;16.402;2024-01-16T00:00:13;4.43;;;3.70;;
13868;SDS011;7004;48.206;16.402;2024-01-16T00:02:40;5.97;;;4.40;;
13868;SDS011;7004;48.206;16.402;2024-01-16T00:05:06;6.03;;;4.00;;
13868;SDS011;7004;48.206;16.402;2024-01-16T00:07:32;5.40;;;4.10;;
13868;SDS011;7004;48.206;16.402;2024-01-16T00:10:00;5.70;;;3.90;;
13868;SDS011;7004;48.206;16.402;2024-01-16T00:12:29;5.37;;;4.00;;
13868;SDS011;7004;48.206;16.402;2024-01-16T00:14:56;5.17;;;4.07;;
13868;SDS011;7004;48.206;16.402;2024-01-16T00:17:22;5.93;;;4.60;;
13868;SDS011;7004;48.206;16.402;2024-01-16T00:19:51;5.53;;;4.30;;
13868;SDS011;7004;48.206;16.402;2024-01-16T00:22:18;4.70;;;4.10;;
13868;SDS011;7004;48.206;16.402;2024-01-16T00:24:44;5.47;;;4.63;;
13868;SDS011;7004;48.206;16.402;2024-01-16T00:27:10;5.63;;;4.43;;
13868;SDS011;7004;48.206;16.402;2024-01-16T00:29:37;4.83;;;4.07;;
13868;SDS011;7004;48.206;16.402;2024-01-16T00:32:04;5.70;;;4.43;;
13868;SDS011;7004;48.206;16.402;2024-01-16T00:34:30;5.77;;;4.37;;
13868;SDS011;7004;48.206;16.402;2024-01-16T00:36:56;8.10;;;4.97;;
13868;SDS011;7004;48.206;16.402;2024-01-16T00:39:22;6.47;;;4.13;;
13868;SDS011;7004;48.206;16.402;2024-01-16T00:41:48;7.30;;;3.80;;
13868;SDS011;7004;48.206;16.402;2024-01-16T00:44:15;6.63;;;4.47;;
13868;SDS011;7004;48.206;16.402;2024-01-16T00:46:42;5.97;;;4.17;;
13868;SDS011;7004;48.206;16.402;2024-01-16T00:49:08;5.13;;;4.07;;
13868;SDS011;7004;48.206;16.402;2024-01-16T00:51:36;5.67;;;4.33;;
13868;SDS011;7004;48.206;16.402;2024-01-16T00:54:02;6.60;;;3.77;;
13868;SDS011;7004;48.206;16.402;2024-01-16T00:56:28;7.77;;;4.30;;
13868;SDS011;7004;48.206;16.402;2024-01-16T00:58:57;7.17;;;3.90;;
13868;SDS011;7004;48.206;16.402;2024-01-16T01:01:23;5.17;;;4.00;;
13868;SDS011;7004;48.206;16.402;2024-01-16T01:03:50;5.40;;;4.47;;
13868;SDS011;7004;48.206;16.402;2024-01-16T01:06:17;5.93;;;4.77;;
13868;SDS011;7004;48.206;16.402;2024-01-16T01:08:43;7.33;;;4.80;;
13868;SDS011;7004;48.206;16.402;2024-01-16T01:11:11;7.00;;;5.10;;
13868;SDS011;7004;48.206;16.402;2024-01-16T01:13:37;6.23;;;4.30;;
13868;SDS011;7004;48.206;16.402;2024-01-16T01:16:03;6.23;;;4.40;;
13868;SDS011;7004;48.206;16.402;2024-01-16T01:18:30;5.87;;;4.70;;
13868;SDS011;7004;48.206;16.402;2024-01-16T01:20:56;5.27;;;4.30;;
13868;SDS011;7004;48.206;16.402;2024-01-16T01:23:22;4.57;;;4.00;;
13868;SDS011;7004;48.206;16.402;2024-01-16T01:25:48;6.13;;;4.20;;
13868;SDS011;7004;48.206;16.402;2024-01-16T01:28:15;6.87;;;4.67;;
13868;SDS011;7004;48.206;16.402;2024-01-16T01:30:41;6.57;;;4.17;;
13868;SDS011;7004;48.206;16.402;2024-01-16T01:33:08;5.83;;;4.13;;
13868;SDS011;7004;48.206;16.402;2024-01-16T01:35:34;5.90;;;4.50;;
13868;SDS011;7004;48.206;16.402;2024-01-16T01:38:00;5.03;;;3.80;;
13868;SDS011;7004;48.206;16.402;2024-01-16T01:40:26;5.47;;;4.43;;
13868;SDS011;7004;48.206;16.402;2024-01-16T01:42:52;7.70;;;5.00;;
13868;SDS011;7004;48.206;16.402;2024-01-16T01:45:18;6.43;;;4.50;;
13868;SDS011;7004;48.206;16.402;2024-01-16T01:47:45;6.50;;;4.37;;
13868;SDS011;7004;48.206;16.402;2024-01-16T01:50:11;6.77;;;4.40;;
13868;SDS011;7004;48.206;16.402;2024-01-16T01:52:39;6.10;;;3.90;;
13868;SDS011;7004;48.206;16.402;2024-01-16T01:55:15;6.43;;;4.40;;
13868;SDS011;7004;48.206;16.402;2024-01-16T01:57:42;6.60;;;4.83;;
13868;SDS011;7004;48.206;16.402;2024-01-16T02:00:08;5.70;;;4.43;;
13868;SDS011;7004;48.206;16.402;2024-01-16T02:02:36;4.97;;;4.10;;
13868;SDS011;7004;48.206;16.402;2024-01-16T02:05:02;6.43;;;4.30;;
13868;SDS011;7004;48.206;16.402;2024-01-16T02:07:29;6.50;;;4.27;;
13868;SDS011;7004;48.206;16.402;2024-01-16T02:09:58;8.67;;;4.53;;
13868;SDS011;7004;48.206;16.402;2024-01-16T02:12:25;4.77;;;4.23;;
13868;SDS011;7004;48.206;16.402;2024-01-16T02:14:52;5.60;;;4.10;;
13868;SDS011;7004;48.206;16.402;2024-01-16T02:17:18;6.87;;;4.27;;
13868;SDS011;7004;48.206;16.402;2024-01-16T02:19:43;9.10;;;4.67;;
13868;SDS011;7004;48.206;16.402;2024-01-16T02:22:11;5.87;;;4.17;;
13868;SDS011;7004;48.206;16.402;2024-01-16T02:24:43;5.77;;;4.00;;
13868;SDS011;7004;48.206;16.402;2024-01-16T02:27:10;6.63;;;4.30;;
13868;SDS011;7004;48.206;16.402;2024-01-16T02:29:40;6.10;;;4.53;;
13868;SDS011;7004;48.206;16.402;2024-01-16T02:32:11;5.20;;;4.20;;
13868;SDS011;7004;48.206;16.402;2024-01-16T02:34:38;4.60;;;3.73;;
13868;SDS011;7004;48.206;16.402;2024-01-16T02:37:04;6.80;;;4.20;;
13868;SDS011;7004;48.206;16.402;2024-01-16T02:39:30;5.37;;;4.10;;
13868;SDS011;7004;48.206;16.402;2024-01-16T02:41:57;8.70;;;4.73;;
13868;SDS011;7004;48.206;16.402;2024-01-16T02:44:23;7.07;;;4.30;;
13868;SDS011;7004;48.206;16.402;2024-01-16T02:46:49;5.27;;;4.13;;
13868;SDS011;7004;48.206;16.402;2024-01-16T02:49:16;7.40;;;3.90;;
13868;SDS011;7004;48.206;16.402;2024-01-16T02:51:42;6.67;;;4.20;;
13868;SDS011;7004;48.206;16.402;2024-01-16T02:54:08;6.87;;;4.73;;
13868;SDS011;7004;48.206;16.402;2024-01-16T02:56:34;6.90;;;4.50;;
13868;SDS011;7004;48.206;16.402;2024-01-16T02:59:00;5.80;;;4.07;;
13868;SDS011;7004;48.206;16.402;2024-01-16T03:01:26;6.97;;;4.33;;
13868;SDS011;7004;48.206;16.402;2024-01-16T03:03:52;4.90;;;4.00;;
13868;SDS011;7004;48.206;16.402;2024-01-16T03:06:22;6.27;;;4.00;;
13868;SDS011;7004;48.206;16.402;2024-01-16T03:08:53;5.50;;;3.80;;
13868;SDS011;7004;48.206;16.402;2024-01-16T03:11:22;6.67;;;4.57;;
13868;SDS011;7004;48.206;16.402;2024-01-16T03:13:50;7.23;;;3.80;;
13868;SDS011;7004;48.206;16.402;2024-01-16T03:16:19;7.67;;;4.60;;
13868;SDS011;7004;48.206;16.402;2024-01-16T03:18:46;6.73;;;4.63;;
13868;SDS011;7004;48.206;16.402;2024-01-16T03:21:15;6.23;;;4.00;;
13868;SDS011;7004;48.206;16.402;2024-01-16T03:23:44;5.93;;;4.23;;
13868;SDS011;7004;48.206;16.402;2024-01-16T03:26:13;8.00;;;5.10;;
13868;SDS011;7004;48.206;16.402;2024-01-16T03:28:40;6.43;;;4.67;;
13868;SDS011;7004;48.206;16.402;2024-01-16T03:31:07;7.40;;;4.47;;
13868;SDS011;7004;48.206;16.402;2024-01-16T03:33:33;10.17;;;4.70;;
13868;SDS011;7004;48.206;16.402;2024-01-16T03:36:00;7.03;;;4.37;;
13868;SDS011;7004;48.206;16.402;2024-01-16T03:38:26;6.33;;;4.20;;
13868;SDS011;7004;48.206;16.402;2024-01-16T03:40:52;8.43;;;5.20;;
13868;SDS011;7004;48.206;16.402;2024-01-16T03:43:19;9.57;;;4.50;;
13868;SDS011;7004;48.206;16.402;2024-01-16T03:45:45;6.57;;;3.93;;
13868;SDS011;7004;48.206;16.402;2024-01-16T03:48:11;7.37;;;4.20;;
13868;SDS011;7004;48.206;16.402;2024-01-16T03:50:37;4.57;;;3.97;;
13868;SDS011;7004;48.206;16.402;2024-01-16T03:53:03;6.10;;;4.40;;
13868;SDS011;7004;48.206;16.402;2024-01-16T03:55:30;5.93;;;4.37;;
13868;SDS011;7004;48.206;16.402;2024-01-16T03:57:57;6.37;;;4.17;;
13868;SDS011;7004;48.206;16.402;2024-01-16T04:00:23;6.60;;;4.00;;
13868;SDS011;7004;48.206;16.402;2024-01-16T04:02:49;7.27;;;3.87;;
13868;SDS011;7004;48.206;16.402;2024-01-16T04:05:16;6.30;;;4.20;;
13868;SDS011;7004;48.206;16.402;2024-01-16T04:07:42;6.23;;;4.23;;
13868;SDS011;7004;48.206;16.402;2024-01-16T04:10:08;5.23;;;4.07;;
13868;SDS011;7004;48.206;16.402;2024-01-16T04:12:34;7.30;;;4.13;;
13868;SDS011;7004;48.206;16.402;2024-01-16T04:15:00;5.47;;;4.27;;
13868;SDS011;7004;48.206;16.402;2024-01-16T04:17:26;6.10;;;4.13;;
13868;SDS011;7004;48.206;16.402;2024-01-16T04:19:52;5.27;;;3.90;;
13868;SDS011;7004;48.206;16.402;2024-01-16T04:22:18;6.40;;;3.87;;
13868;SDS011;7004;48.206;16.402;2024-01-16T04:24:44;6.50;;;4.30;;
13868;SDS011;7004;48.206;16.402;2024-01-16T04:27:10;6.80;;;4.00;;
13868;SDS011;7004;48.206;16.402;2024-01-16T04:29:37;5.03;;;3.87;;
13868;SDS011;7004;48.206;16.402;2024-01-16T04:32:03;4.97;;;3.53;;
13868;SDS011;7004;48.206;16.402;2024-01-16T04:34:30;4.93;;;3.67;;
13868;SDS011;7004;48.206;16.402;2024-01-16T04:36:55;4.60;;;3.57;;
13868;SDS011;7004;48.206;16.402;2024-01-16T04:39:22;5.00;;;3.73;;
13868;SDS011;7004;48.206;16.402;2024-01-16T04:41:48;5.70;;;4.10;;
13868;SDS011;7004;48.206;16.402;2024-01-16T04:44:14;4.50;;;3.57;;
13868;SDS011;7004;48.206;16.402;2024-01-16T04:46:42;4.23;;;3.37;;
13868;SDS011;7004;48.206;16.402;2024-01-16T04:49:08;4.77;;;3.70;;
13868;SDS011;7004;48.206;16.402;2024-01-16T04:51:34;6.13;;;3.90;;
13868;SDS011;7004;48.206;16.402;2024-01-16T04:54:00;3.97;;;3.30;;
13868;SDS011;7004;48.206;16.402;2024-01-16T04:56:26;6.27;;;3.60;;
13868;SDS011;7004;48.206;16.402;2024-01-16T04:58:53;3.93;;;3.30;;
13868;SDS011;7004;48.206;16.402;2024-01-16T05:01:19;5.73;;;3.50;;
13868;SDS011;7004;48.206;16.402;2024-01-16T05:03:46;5.67;;;3.40;;
13868;SDS011;7004;48.206;16.402;2024-01-16T05:06:15;4.70;;;3.30;;
13868;SDS011;7004;48.206;16.402;2024-01-16T05:08:42;7.27;;;3.20;;
13868;SDS011;7004;48.206;16.402;2024-01-16T05:11:08;6.33;;;3.00;;
13868;SDS011;7004;48.206;16.402;2024-01-16T05:13:35;4.20;;;3.17;;
13868;SDS011;7004;48.206;16.402;2024-01-16T05:16:01;5.83;;;3.40;;
13868;SDS011;7004;48.206;16.402;2024-01-16T05:18:27;4.10;;;3.20;;
13868;SDS011;7004;48.206;16.402;2024-01-16T05:20:53;4.00;;;2.87;;
13868;SDS011;7004;48.206;16.402;2024-01-16T05:23:21;5.13;;;2.90;;
13868;SDS011;7004;48.206;16.402;2024-01-16T05:25:47;4.33;;;2.90;;
13868;SDS011;7004;48.206;16.402;2024-01-16T05:28:14;5.20;;;2.97;;
13868;SDS011;7004;48.206;16.402;2024-01-16T05:30:40;5.23;;;2.87;;
13868;SDS011;7004;48.206;16.402;2024-01-16T05:33:07;4.80;;;2.80;;
13868;SDS011;7004;48.206;16.402;2024-01-16T05:35:34;4.87;;;2.63;;
13868;SDS011;7004;48.206;16.402;2024-01-16T05:38:00;4.13;;;2.80;;
13868;SDS011;7004;48.206;16.402;2024-01-16T05:40:26;3.20;;;2.60;;
13868;SDS011;7004;48.206;16.402;2024-01-16T05:42:52;4.60;;;2.60;;
13868;SDS011;7004;48.206;16.402;2024-01-16T05:45:19;3.23;;;2.20;;
13868;SDS011;7004;48.206;16.402;2024-01-16T05:47:45;7.27;;;2.40;;
13868;SDS011;7004;48.206;16.402;2024-01-16T05:50:11;5.77;;;2.43;;
13868;SDS011;7004;48.206;16.402;2024-01-16T05:52:37;6.27;;;2.53;;
13868;SDS011;7004;48.206;16.402;2024-01-16T05:55:04;6.03;;;2.77;;
13868;SDS011;7004;48.206;16.402;2024-01-16T05:57:31;2.50;;;2.30;;
13868;SDS011;7004;48.206;16.402;2024-01-16T05:59:58;3.40;;;2.27;;
13868;SDS011;7004;48.206;16.402;2024-01-16T06:02:28;5.93;;;2.43;;
13868;SDS011;7004;48.206;16.402;2024-01-16T06:04:54;4.00;;;2.70;;
13868;SDS011;7004;48.206;16.402;2024-01-16T06:07:20;3.53;;;2.20;;
13868;SDS011;7004;48.206;16.402;2024-01-16T06:09:46;4.80;;;2.50;;
13868;SDS011;7004;48.206;16.402;2024-01-16T06:12:13;3.23;;;2.50;;
13868;SDS011;7004;48.206;16.402;2024-01-16T06:14:38;3.30;;;2.20;;
13868;SDS011;7004;48.206;16.402;2024-01-16T06:17:05;3.20;;;1.93;;
13868;SDS011;7004;48.206;16.402;2024-01-16T06:19:31;2.20;;;2.00;;
13868;SDS011;7004;48.206;16.402;2024-01-16T06:21:58;7.23;;;2.30;;
13868;SDS011;7004;48.206;16.402;2024-01-16T06:24:25;3.67;;;2.30;;
13868;SDS011;7004;48.206;16.402;2024-01-16T06:26:51;9.13;;;2.53;;
13868;SDS011;7004;48.206;16.402;2024-01-16T06:29:17;4.73;;;2.70;;
13868;SDS011;7004;48.206;16.402;2024-01-16T06:31:43;3.63;;;2.47;;
13868;SDS011;7004;48.206;16.402;2024-01-16T06:34:09;3.73;;;2.13;;
13868;SDS011;7004;48.206;16.402;2024-01-16T06:36:35;3.90;;;2.00;;
13868;SDS011;7004;48.206;16.402;2024-01-16T06:39:01;4.07;;;2.43;;
13868;SDS011;7004;48.206;16.402;2024-01-16T06:41:29;3.50;;;2.20;;
13868;SDS011;7004;48.206;16.402;2024-01-16T06:43:55;4.07;;;2.60;;
13868;SDS011;7004;48.206;16.402;2024-01-16T06:46:21;7.30;;;2.83;;
13868;SDS011;7004;48.206;16.402;2024-01-16T06:48:47;7.53;;;2.80;;
13868;SDS011;7004;48.206;16.402;2024-01-16T06:51:14;4.40;;;2.20;;
13868;SDS011;7004;48.206;16.402;2024-01-16T06:53:41;9.13;;;2.40;;
13868;SDS011;7004;48.206;16.402;2024-01-16T06:56:07;3.70;;;2.67;;
13868;SDS011;7004;48.206;16.402;2024-01-16T06:58:34;4.87;;;2.40;;
13868;SDS011;7004;48.206;16.402;2024-01-16T07:01:01;4.30;;;2.50;;
13868;SDS011;7004;48.206;16.402;2024-01-16T07:03:29;5.80;;;2.47;;
13868;SDS011;7004;48.206;16.402;2024-01-16T07:05:55;7.60;;;2.67;;
13868;SDS011;7004;48.206;16.402;2024-01-16T07:08:21;4.17;;;2.23;;
13868;SDS011;7004;48.206;16.402;2024-01-16T07:10:47;6.13;;;2.90;;
13868;SDS011;7004;48.206;16.402;2024-01-16T07:13:13;3.63;;;2.30;;
13868;SDS011;7004;48.206;16.402;2024-01-16T07:15:40;2.43;;;2.03;;
13868;SDS011;7004;48.206;16.402;2024-01-16T07:18:06;4.63;;;2.27;;
13868;SDS011;7004;48.206;16.402;2024-01-16T07:20:32;5.93;;;2.33;;
13868;SDS011;7004;48.206;16.402;2024-01-16T07:22:58;4.40;;;2.80;;
13868;SDS011;7004;48.206;16.402;2024-01-16T07:25:24;3.07;;;2.23;;
13868;SDS011;7004;48.206;16.402;2024-01-16T07:27:50;6.00;;;1.97;;
13868;SDS011;7004;48.206;16.402;2024-01-16T07:30:16;2.77;;;1.93;;
13868;SDS011;7004;48.206;16.402;2024-01-16T07:32:42;4.30;;;2.00;;
13868;SDS011;7004;48.206;16.402;2024-01-16T07:35:08;7.47;;;2.60;;
13868;SDS011;7004;48.206;16.402;2024-01-16T07:37:34;3.57;;;2.20;;
13868;SDS011;7004;48.206;16.402;2024-01-16T07:40:01;5.10;;;2.07;;
13868;SDS011;7004;48.206;16.402;2024-01-16T07:42:27;5.43;;;2.23;;
13868;SDS011;7004;48.206;16.402;2024-01-16T07:45:00;4.00;;;2.37;;
13868;SDS011;7004;48.206;16.402;2024-01-16T07:47:30;4.80;;;2.30;;
13868;SDS011;7004;48.206;16.402;2024-01-16T07:49:57;3.63;;;1.77;;
13868;SDS011;7004;48.206;16.402;2024-01-16T07:52:24;3.70;;;1.93;;
13868;SDS011;7004;48.206;16.402;2024-01-16T07:54:50;2.83;;;2.07;;
13868;SDS011;7004;48.206;16.402;2024-01-16T07:57:16;4.03;;;2.10;;
13868;SDS011;7004;48.206;16.402;2024-01-16T07:59:42;4.10;;;2.40;;
13868;SDS011;7004;48.206;16.402;2024-01-16T08:02:08;5.60;;;2.30;;
13868;SDS011;7004;48.206;16.402;2024-01-16T08:04:34;3.53;;;2.20;;
13868;SDS011;7004;48.206;16.402;2024-01-16T08:07:01;4.40;;;2.17;;
13868;SDS011;7004;48.206;16.402;2024-01-16T08:09:27;3.43;;;2.30;;
13868;SDS011;7004;48.206;16.402;2024-01-16T08:11:53;3.30;;;2.27;;
13868;SDS011;7004;48.206;16.402;2024-01-16T08:14:20;5.07;;;2.00;;
13868;SDS011;7004;48.206;16.402;2024-01-16T08:16:46;5.37;;;2.40;;
13868;SDS011;7004;48.206;16.402;2024-01-16T08:19:13;5.33;;;2.40;;
13868;SDS011;7004;48.206;16.402;2024-01-16T08:21:40;2.90;;;2.20;;
13868;SDS011;7004;48.206;16.402;2024-01-16T08:24:06;6.50;;;2.07;;
13868;SDS011;7004;48.206;16.402;2024-01-16T08:26:32;7.50;;;2.40;;
13868;SDS011;7004;48.206;16.402;2024-01-16T08:28:58;3.47;;;2.10;;
13868;SDS011;7004;48.206;16.402;2024-01-16T08:31:24;4.13;;;1.93;;
13868;SDS011;7004;48.206;16.402;2024-01-16T08:33:50;4.80;;;1.87;;
13868;SDS011;7004;48.206;16.402;2024-01-16T08:36:17;6.13;;;2.10;;
13868;SDS011;7004;48.206;16.402;2024-01-16T08:38:43;5.37;;;1.70;;
13868;SDS011;7004;48.206;16.402;2024-01-16T08:41:09;4.37;;;1.90;;
13868;SDS011;7004;48.206;16.402;2024-01-16T08:43:36;2.27;;;1.60;;
13868;SDS011;7004;48.206;16.402;2024-01-16T08:46:02;4.90;;;2.07;;
13868;SDS011;7004;48.206;16.402;2024-01-16T08:48:28;2.30;;;1.90;;
13868;SDS011;7004;48.206;16.402;2024-01-16T08:50:55;2.43;;;1.60;;
13868;SDS011;7004;48.206;16.402;2024-01-16T08:53:20;3.67;;;2.10;;
13868;SDS011;7004;48.206;16.402;2024-01-16T08:55:49;2.30;;;1.70;;
13868;SDS011;7004;48.206;16.402;2024-01-16T08:58:16;8.43;;;2.00;;
13868;SDS011;7004;48.206;16.402;2024-01-16T09:00:42;4.07;;;1.97;;
13868;SDS011;7004;48.206;16.402;2024-01-16T09:03:08;2.80;;;1.90;;
13868;SDS011;7004;48.206;16.402;2024-01-16T09:05:34;2.83;;;1.70;;
13868;SDS011;7004;48.206;16.402;2024-01-16T09:08:04;3.70;;;1.70;;
13868;SDS011;7004;48.206;16.402;2024-01-16T09:10:30;3.93;;;2.00;;
13868;SDS011;7004;48.206;16.402;2024-01-16T09:12:56;2.33;;;1.70;;
13868;SDS011;7004;48.206;16.402;2024-01-16T09:15:22;2.23;;;1.67;;
13868;SDS011;7004;48.206;16.402;2024-01-16T09:17:49;2.20;;;1.60;;
13868;SDS011;7004;48.206;16.402;2024-01-16T09:20:16;4.97;;;1.80;;
13868;SDS011;7004;48.206;16.402;2024-01-16T09:22:43;2.47;;;1.60;;
13868;SDS011;7004;48.206;16.402;2024-01-16T09:25:09;3.73;;;1.70;;
13868;SDS011;7004;48.206;16.402;2024-01-16T09:27:36;1.70;;;1.47;;
13868;SDS011;7004;48.206;16.402;2024-01-16T09:30:03;3.27;;;1.40;;
13868;SDS011;7004;48.206;16.402;2024-01-16T09:32:32;3.53;;;1.60;;
13868;SDS011;7004;48.206;16.402;2024-01-16T09:35:01;2.37;;;1.77;;
13868;SDS011;7004;48.206;16.402;2024-01-16T09:37:29;3.53;;;1.87;;
13868;SDS011;7004;48.206;16.402;2024-01-16T09:39:55;5.47;;;2.07;;
13868;SDS011;7004;48.206;16.402;2024-01-16T09:42:22;3.80;;;1.70;;
13868;SDS011;7004;48.206;16.402;2024-01-16T09:44:48;4.47;;;2.30;;
13868;SDS011;7004;48.206;16.402;2024-01-16T09:47:15;2.90;;;2.00;;
13868;SDS011;7004;48.206;16.402;2024-01-16T09:49:42;4.20;;;2.37;;
13868;SDS011;7004;48.206;16.402;2024-01-16T09:52:12;4.40;;;1.90;;
13868;SDS011;7004;48.206;16.402;2024-01-16T09:54:38;2.93;;;1.67;;
13868;SDS011;7004;48.206;16.402;2024-01-16T09:57:04;2.97;;;1.80;;
13868;SDS011;7004;48.206;16.402;2024-01-16T09:59:33;3.27;;;1.97;;
13868;SDS011;7004;48.206;16.402;2024-01-16T10:02:04;4.50;;;2.10;;
13868;SDS011;7004;48.206;16.402;2024-01-16T10:04:33;2.67;;;1.73;;
13868;SDS011;7004;48.206;16.402;2024-01-16T10:07:00;3.50;;;1.70;;
13868;SDS011;7004;48.206;16.402;2024-01-16T10:09:29;3.87;;;2.20;;
13868;SDS011;7004;48.206;16.402;2024-01-16T10:11:55;2.23;;;1.90;;
13868;SDS011;7004;48.206;16.402;2024-01-16T10:14:21;3.67;;;2.27;;
13868;SDS011;7004;48.206;16.402;2024-01-16T10:16:56;3.13;;;2.17;;
13868;SDS011;7004;48.206;16.402;2024-01-16T10:19:31;5.67;;;2.10;;
13868;SDS011;7004;48.206;16.402;2024-01-16T10:22:01;5.00;;;2.40;;
13868;SDS011;7004;48.206;16.402;2024-01-16T10:24:33;5.57;;;2.00;;
13868;SDS011;7004;48.206;16.402;2024-01-16T10:27:01;3.30;;;2.07;;
13868;SDS011;7004;48.206;16.402;2024-01-16T10:29:31;2.37;;;1.80;;
13868;SDS011;7004;48.206;16.402;2024-01-16T10:31:58;3.13;;;2.00;;
13868;SDS011;7004;48.206;16.402;2024-01-16T10:34:25;3.33;;;2.27;;
13868;SDS011;7004;48.206;16.402;2024-01-16T10:36:58;4.70;;;2.17;;
13868;SDS011;7004;48.206;16.402;2024-01-16T10:39:27;4.10;;;2.07;;
13868;SDS011;7004;48.206;16.402;2024-01-16T10:41:53;7.47;;;2.40;;
13868;SDS011;7004;48.206;16.402;2024-01-16T10:44:22;4.60;;;1.83;;
13868;SDS011;7004;48.206;16.402;2024-01-16T10:46:48;3.77;;;2.27;;
13868;SDS011;7004;48.206;16.402;2024-01-16T10:49:14;3.53;;;2.43;;
13868;SDS011;7004;48.206;16.402;2024-01-16T10:51:44;4.67;;;2.20;;
13868;SDS011;7004;48.206;16.402;2024-01-16T10:54:13;4.50;;;2.07;;
13868;SDS011;7004;48.206;16.402;2024-01-16T10:56:44;2.63;;;1.80;;
13868;SDS011;7004;48.206;16.402;2024-01-16T10:59:25;4.77;;;2.17;;
13868;SDS011;7004;48.206;16.402;2024-01-16T11:02:03;3.47;;;2.00;;
13868;SDS011;7004;48.206;16.402;2024-01-16T11:04:35;3.73;;;2.27;;
13868;SDS011;7004;48.206;16.402;2024-01-16T11:07:03;2.50;;;1.70;;
13868;SDS011;7004;48.206;16.402;2024-01-16T11:09:31;5.73;;;2.00;;
13868;SDS011;7004;48.206;16.402;2024-01-16T11:11:57;3.97;;;2.00;;
13868;SDS011;7004;48.206;16.402;2024-01-16T11:14:25;3.10;;;1.97;;
13868;SDS011;7004;48.206;16.402;2024-01-16T11:16:52;3.07;;;1.93;;
13868;SDS011;7004;48.206;16.402;2024-01-16T11:19:20;3.53;;;1.60;;
13868;SDS011;7004;48.206;16.402;2024-01-16T11:21:47;6.43;;;2.43;;
13868;SDS011;7004;48.206;16.402;2024-01-16T11:24:14;8.30;;;2.20;;
13868;SDS011;7004;48.206;16.402;2024-01-16T11:26:40;3.93;;;2.00;;
13868;SDS011;7004;48.206;16.402;2024-01-16T11:31:51;4.07;;;2.00;;
13868;SDS011;7004;48.206;16.402;2024-01-16T11:37:27;4.57;;;2.10;;
13868;SDS011;7004;48.206;16.402;2024-01-16T11:40:20;4.03;;;1.90;;
13868;SDS011;7004;48.206;16.402;2024-01-16T11:42:46;4.23;;;2.20;;
13868;SDS011;7004;48.206;16.402;2024-01-16T11:48:12;5.90;;;1.93;;
13868;SDS011;7004;48.206;16.402;2024-01-16T11:50:40;4.47;;;2.27;;
13868;SDS011;7004;48.206;16.402;2024-01-16T11:53:07;5.23;;;2.57;;
13868;SDS011;7004;48.206;16.402;2024-01-16T11:55:34;3.87;;;1.90;;
13868;SDS011;7004;48.206;16.402;2024-01-16T11:58:26;4.40;;;1.70;;
13868;SDS011;7004;48.206;16.402;2024-01-16T12:01:19;6.00;;;2.10;;
13868;SDS011;7004;48.206;16.402;2024-01-16T12:03:46;5.63;;;2.30;;
13868;SDS011;7004;48.206;16.402;2024-01-16T12:06:26;3.37;;;1.60;;
13868;SDS011;7004;48.206;16.402;2024-01-16T12:08:52;3.93;;;1.90;;
13868;SDS011;7004;48.206;16.402;2024-01-16T12:11:19;6.97;;;2.03;;
13868;SDS011;7004;48.206;16.402;2024-01-16T12:14:00;2.63;;;1.40;;
13868;SDS011;7004;48.206;16.402;2024-01-16T12:16:29;6.07;;;1.70;;
13868;SDS011;7004;48.206;16.402;2024-01-16T12:19:05;4.07;;;2.10;;
13868;SDS011;7004;48.206;16.402;2024-01-16T12:21:32;4.50;;;2.20;;
13868;SDS011;7004;48.206;16.402;2024-01-16T12:24:11;4.33;;;1.70;;
13868;SDS011;7004;48.206;16.402;2024-01-16T12:26:38;3.27;;;1.77;;
13868;SDS011;7004;48.206;16.402;2024-01-16T12:29:06;4.27;;;2.00;;
13868;SDS011;7004;48.206;16.402;2024-01-16T12:31:32;6.63;;;2.03;;
13868;SDS011;7004;48.206;16.402;2024-01-16T12:34:08;5.53;;;1.83;;
13868;SDS011;7004;48.206;16.402;2024-01-16T12:36:35;2.97;;;1.67;;
13868;SDS011;7004;48.206;16.402;2024-01-16T12:39:03;2.63;;;1.80;;
13868;SDS011;7004;48.206;16.402;2024-01-16T12:41:32;2.30;;;1.50;;
13868;SDS011;7004;48.206;16.402;2024-01-16T12:44:06;2.90;;;1.60;;
13868;SDS011;7004;48.206;16.402;2024-01-16T12:46:33;3.53;;;1.37;;
13868;SDS011;7004;48.206;16.402;2024-01-16T12:49:02;3.20;;;1.43;;
13868;SDS011;7004;48.206;16.402;2024-01-16T12:51:29;2.70;;;1.40;;
13868;SDS011;7004;48.206;16.402;2024-01-16T12:54:10;2.10;;;1.40;;
13868;SDS011;7004;48.206;16.402;2024-01-16T12:56:40;6.67;;;1.47;;
13868;SDS011;7004;48.206;16.402;2024-01-16T12:59:13;5.60;;;1.80;;
13868;SDS011;7004;48.206;16.402;2024-01-16T13:01:40;4.90;;;1.73;;
13868;SDS011;7004;48.206;16.402;2024-01-16T13:04:12;4.33;;;1.60;;
13868;SDS011;7004;48.206;16.402;2024-01-16T13:06:41;3.43;;;1.20;;
13868;SDS011;7004;48.206;16.402;2024-01-16T13:09:09;3.90;;;1.57;;
13868;SDS011;7004;48.206;16.402;2024-01-16T13:11:50;7.90;;;1.60;;
13868;SDS011;7004;48.206;16.402;2024-01-16T13:14:24;4.30;;;1.67;;
13868;SDS011;7004;48.206;16.402;2024-01-16T13:16:51;6.13;;;1.47;;
13868;SDS011;7004;48.206;16.402;2024-01-16T13:19:19;4.00;;;1.60;;
13868;SDS011;7004;48.206;16.402;2024-01-16T13:21:46;2.53;;;1.70;;
13868;SDS011;7004;48.206;16.402;2024-01-16T13:24:15;3.40;;;1.30;;
13868;SDS011;7004;48.206;16.402;2024-01-16T13:26:43;3.17;;;1.37;;
13868;SDS011;7004;48.206;16.402;2024-01-16T13:29:09;3.63;;;1.57;;
13868;SDS011;7004;48.206;16.402;2024-01-16T13:31:35;2.80;;;1.37;;
13868;SDS011;7004;48.206;16.402;2024-01-16T13:34:01;3.40;;;1.60;;
13868;SDS011;7004;48.206;16.402;2024-01-16T13:36:28;4.33;;;1.53;;
13868;SDS011;7004;48.206;16.402;2024-01-16T13:38:54;1.53;;;1.40;;
13868;SDS011;7004;48.206;16.402;2024-01-16T13:41:21;3.00;;;1.40;;
13868;SDS011;7004;48.206;16.402;2024-01-16T13:43:47;2.57;;;1.43;;
13868;SDS011;7004;48.206;16.402;2024-01-16T13:46:15;5.80;;;1.70;;
13868;SDS011;7004;48.206;16.402;2024-01-16T13:48:43;5.07;;;1.57;;
13868;SDS011;7004;48.206;16.402;2024-01-16T13:51:10;5.73;;;1.93;;
13868;SDS011;7004;48.206;16.402;2024-01-16T13:53:37;5.30;;;1.47;;
13868;SDS011;7004;48.206;16.402;2024-01-16T13:56:03;2.93;;;1.70;;
13868;SDS011;7004;48.206;16.402;2024-01-16T13:58:29;5.00;;;1.70;;
13868;SDS011;7004;48.206;16.402;2024-01-16T14:00:55;3.07;;;1.47;;
13868;SDS011;7004;48.206;16.402;2024-01-16T14:03:22;6.40;;;3.37;;
13868;SDS011;7004;48.206;16.402;2024-01-16T14:05:48;4.60;;;1.53;;
13868;SDS011;7004;48.206;16.402;2024-01-16T14:08:14;1.70;;;1.10;;
13868;SDS011;7004;48.206;16.402;2024-01-16T14:10:40;4.83;;;1.60;;
13868;SDS011;7004;48.206;16.402;2024-01-16T14:13:06;3.80;;;1.53;;
13868;SDS011;7004;48.206;16.402;2024-01-16T14:15:32;1.87;;;1.30;;
13868;SDS011;7004;48.206;16.402;2024-01-16T14:17:58;4.47;;;1.50;;
13868;SDS011;7004;48.206;16.402;2024-01-16T14:20:25;6.90;;;1.97;;
13868;SDS011;7004;48.206;16.402;2024-01-16T14:22:52;5.47;;;1.70;;
13868;SDS011;7004;48.206;16.402;2024-01-16T14:25:18;6.27;;;1.80;;
13868;SDS011;7004;48.206;16.402;2024-01-16T14:27:47;3.53;;;1.40;;
13868;SDS011;7004;48.206;16.402;2024-01-16T14:30:29;3.70;;;1.57;;
13868;SDS011;7004;48.206;16.402;2024-01-16T14:32:58;4.50;;;2.07;;
13868;SDS011;7004;48.206;16.402;2024-01-16T14:35:24;1.50;;;1.40;;
13868;SDS011;7004;48.206;16.402;2024-01-16T14:37:51;5.67;;;2.60;;
13868;SDS011;7004;48.206;16.402;2024-01-16T14:40:17;5.40;;;2.20;;
13868;SDS011;7004;48.206;16.402;2024-01-16T14:42:50;3.87;;;2.03;;
13868;SDS011;7004;48.206;16.402;2024-01-16T14:45:24;4.27;;;1.70;;
13868;SDS011;7004;48.206;16.402;2024-01-16T14:47:54;2.27;;;1.40;;
13868;SDS011;7004;48.206;16.402;2024-01-16T14:50:20;8.03;;;1.57;;
13868;SDS011;7004;48.206;16.402;2024-01-16T14:52:50;2.47;;;1.30;;
13868;SDS011;7004;48.206;16.402;2024-01-16T14:55:17;4.03;;;1.73;;
13868;SDS011;7004;48.206;16.402;2024-01-16T14:57:45;3.17;;;1.70;;